createdAt,value
2018-03-16T00:01:59.201Z,72.63
2018-03-16T00:04:27.534Z,55.77
2018-03-16T00:06:55.850Z,50.17
2018-03-16T00:09:24.185Z,65.47
2018-03-16T00:11:52.507Z,57.97
2018-03-16T00:14:20.895Z,54.87
2018-03-16T00:16:49.262Z,49.77
2018-03-16T00:19:17.618Z,71.10
2018-03-16T00:21:46.028Z,71.57
2018-03-16T00:24:14.407Z,51.70
2018-03-16T00:26:42.721Z,60.10
2018-03-16T00:29:11.033Z,42.50
2018-03-16T00:31:39.364Z,48.40
2018-03-16T00:34:07.690Z,53.27
2018-03-16T00:36:36.013Z,50.40
2018-03-16T00:39:03.668Z,45.30
2018-03-16T00:41:31.880Z,43.50
2018-03-16T00:44:00.251Z,45.40
2018-03-16T00:46:28.599Z,42.73
2018-03-16T00:48:56.939Z,38.37
2018-03-16T00:51:25.264Z,37.20
2018-03-16T00:53:53.597Z,46.00
2018-03-16T00:56:21.940Z,46.83
2018-03-16T00:58:50.283Z,53.80
2018-03-16T01:01:18.603Z,47.03
2018-03-16T01:03:46.926Z,65.50
2018-03-16T01:06:15.250Z,72.80
2018-03-16T01:08:43.573Z,58.40
2018-03-16T01:11:11.921Z,46.50
2018-03-16T01:13:40.268Z,60.03
2018-03-16T01:16:08.605Z,47.27
2018-03-16T01:18:36.934Z,61.77
2018-03-16T01:21:05.837Z,52.67
2018-03-16T01:23:34.174Z,64.97
2018-03-16T01:26:02.551Z,69.93
2018-03-16T01:28:30.884Z,76.37
2018-03-16T01:30:59.206Z,69.37
2018-03-16T01:33:27.573Z,71.00
2018-03-16T01:35:55.674Z,66.90
2018-03-16T01:38:23.999Z,58.23
2018-03-16T01:40:52.320Z,57.63
2018-03-16T01:43:20.642Z,65.90
2018-03-16T01:45:49.005Z,57.07
2018-03-16T01:48:17.344Z,60.53
2018-03-16T01:50:45.702Z,56.30
2018-03-16T01:53:17.297Z,58.23
2018-03-16T01:55:45.634Z,56.60
2018-03-16T01:58:13.968Z,52.43
2018-03-16T02:00:42.288Z,50.83
2018-03-16T02:03:10.629Z,44.73
2018-03-16T02:05:38.949Z,58.07
2018-03-16T02:08:07.308Z,50.77
2018-03-16T02:10:35.630Z,54.87
2018-03-16T02:13:03.948Z,48.37
2018-03-16T02:15:32.109Z,52.70
2018-03-16T02:18:00.445Z,51.47
2018-03-16T02:20:28.783Z,51.03
2018-03-16T02:22:57.141Z,48.57
2018-03-16T02:25:25.514Z,53.40
2018-03-16T02:27:53.827Z,47.43
2018-03-16T02:30:22.219Z,53.97
2018-03-16T02:32:50.556Z,55.57
2018-03-16T02:35:18.935Z,53.97
2018-03-16T02:37:47.262Z,55.23
2018-03-16T02:40:15.658Z,55.57
2018-03-16T02:42:43.990Z,54.40
2018-03-16T02:45:12.346Z,46.17
2018-03-16T02:47:40.699Z,53.87
2018-03-16T02:50:09.038Z,54.53
2018-03-16T02:52:37.380Z,52.17
2018-03-16T02:55:05.698Z,55.90
2018-03-16T02:57:34.067Z,55.10
2018-03-16T03:00:02.414Z,49.73
2018-03-16T03:02:30.793Z,53.93
2018-03-16T03:04:59.153Z,56.13
2018-03-16T03:07:27.539Z,52.60
2018-03-16T03:09:55.871Z,49.23
2018-03-16T03:12:24.203Z,54.97
2018-03-16T03:14:52.552Z,55.67
2018-03-16T03:17:20.888Z,52.07
2018-03-16T03:19:49.217Z,51.27
2018-03-16T03:22:18.770Z,54.93
2018-03-16T03:24:47.187Z,49.57
2018-03-16T03:27:15.720Z,55.77
2018-03-16T03:29:44.109Z,53.27
2018-03-16T03:32:12.424Z,51.63
2018-03-16T03:34:40.786Z,48.77
2018-03-16T03:37:09.212Z,47.13
2018-03-16T03:39:37.537Z,51.57
2018-03-16T03:42:05.894Z,48.53
2018-03-16T03:44:34.277Z,51.63
2018-03-16T03:47:02.699Z,51.93
2018-03-16T03:49:31.127Z,45.40
2018-03-16T03:51:59.507Z,47.37
2018-03-16T03:54:27.818Z,46.57
2018-03-16T03:56:56.150Z,49.83
2018-03-16T03:59:24.474Z,46.30
2018-03-16T04:01:52.803Z,52.57
2018-03-16T04:04:21.142Z,48.77
2018-03-16T04:06:49.474Z,50.57
2018-03-16T04:09:17.819Z,46.37
2018-03-16T04:11:46.134Z,48.50
2018-03-16T04:14:14.647Z,51.90
2018-03-16T04:16:43.045Z,44.27
2018-03-16T04:19:11.391Z,51.53
2018-03-16T04:21:39.730Z,46.23
2018-03-16T04:24:08.285Z,45.67
2018-03-16T04:26:36.634Z,46.17
2018-03-16T04:29:04.954Z,48.27
2018-03-16T04:31:33.284Z,45.73
2018-03-16T04:34:01.599Z,42.40
2018-03-16T04:36:29.984Z,44.43
2018-03-16T04:38:58.334Z,43.47
2018-03-16T04:41:26.719Z,52.73
2018-03-16T04:43:55.081Z,49.83
2018-03-16T04:46:23.443Z,49.20
2018-03-16T04:48:51.781Z,53.67
2018-03-16T04:51:20.205Z,45.80
2018-03-16T04:53:48.551Z,47.80
2018-03-16T04:56:16.922Z,45.73
2018-03-16T04:58:54.966Z,46.50
2018-03-16T05:01:23.284Z,46.70
2018-03-16T05:03:51.648Z,54.77
2018-03-16T05:06:20.034Z,54.50
2018-03-16T05:08:48.396Z,48.17
2018-03-16T05:11:16.746Z,46.30
2018-03-16T05:13:45.098Z,48.13
2018-03-16T05:16:13.418Z,48.00
2018-03-16T05:18:41.787Z,44.50
2018-03-16T05:21:10.130Z,49.80
2018-03-16T05:23:38.451Z,44.63
2018-03-16T05:26:06.821Z,48.30
2018-03-16T05:28:35.221Z,45.97
2018-03-16T05:31:03.560Z,44.60
2018-03-16T05:33:31.888Z,44.23
2018-03-16T05:36:00.249Z,37.93
2018-03-16T05:38:28.624Z,46.10
2018-03-16T05:41:09.654Z,44.23
2018-03-16T05:43:38.051Z,46.30
2018-03-16T05:46:06.397Z,43.67
2018-03-16T05:48:34.758Z,47.67
2018-03-16T05:51:03.166Z,43.57
2018-03-16T05:53:31.487Z,51.53
2018-03-16T05:55:59.899Z,40.43
2018-03-16T05:58:28.272Z,50.03
2018-03-16T06:00:56.745Z,42.60
2018-03-16T06:03:43.839Z,57.53
2018-03-16T06:06:12.903Z,53.10
2018-03-16T06:08:41.248Z,50.77
2018-03-16T06:11:09.658Z,47.80
2018-03-16T06:14:00.148Z,45.17
2018-03-16T06:16:28.475Z,53.13
2018-03-16T06:18:56.863Z,41.70
2018-03-16T06:21:25.298Z,46.27
2018-03-16T06:23:53.727Z,40.80
2018-03-16T06:26:22.124Z,38.07
2018-03-16T06:28:50.471Z,41.30
2018-03-16T06:31:18.846Z,38.07
2018-03-16T06:33:47.202Z,40.03
2018-03-16T06:36:15.526Z,39.27
2018-03-16T06:38:43.881Z,37.77
2018-03-16T06:41:13.025Z,34.67
2018-03-16T06:43:41.376Z,38.00
2018-03-16T06:46:09.782Z,30.30
2018-03-16T06:48:38.100Z,33.07
2018-03-16T06:51:06.421Z,39.53
2018-03-16T06:53:34.821Z,48.90
2018-03-16T06:56:03.207Z,22.97
2018-03-16T06:58:31.571Z,37.83
2018-03-16T07:00:59.987Z,28.67
2018-03-16T07:03:28.498Z,27.07
2018-03-16T07:05:56.837Z,25.00
2018-03-16T07:08:25.243Z,28.83
2018-03-16T07:10:53.642Z,22.73
2018-03-16T07:13:21.975Z,26.60
2018-03-16T07:15:50.294Z,26.60
2018-03-16T07:18:18.615Z,28.03
2018-03-16T07:20:46.972Z,31.43
2018-03-16T07:23:15.380Z,35.40
2018-03-16T07:25:43.727Z,35.57
2018-03-16T07:28:12.063Z,38.93
2018-03-16T07:30:40.439Z,54.43
2018-03-16T07:33:08.865Z,53.33
2018-03-16T07:35:37.301Z,41.93
2018-03-16T07:38:05.625Z,57.83
2018-03-16T07:40:34.008Z,56.07
2018-03-16T07:43:02.474Z,58.10
2018-03-16T07:45:36.425Z,54.87
2018-03-16T07:48:05.598Z,45.63
2018-03-16T07:50:33.959Z,48.67
2018-03-16T07:53:02.309Z,39.90
2018-03-16T07:55:30.674Z,36.00
2018-03-16T07:57:59.013Z,38.97
2018-03-16T08:00:27.425Z,42.30
2018-03-16T08:02:55.775Z,34.47
2018-03-16T08:05:24.187Z,37.60
2018-03-16T08:07:52.586Z,33.17
2018-03-16T08:10:20.934Z,39.70
2018-03-16T08:12:49.268Z,30.03
2018-03-16T08:15:17.607Z,27.70
2018-03-16T08:17:46.201Z,38.17
2018-03-16T08:20:14.591Z,29.30
2018-03-16T08:22:43.040Z,31.40
2018-03-16T08:25:11.371Z,31.03
2018-03-16T08:27:39.730Z,31.97
2018-03-16T08:30:08.098Z,38.13
2018-03-16T08:32:36.468Z,35.77
2018-03-16T08:35:04.835Z,37.77
2018-03-16T08:37:33.169Z,30.67
2018-03-16T08:40:01.514Z,38.10
2018-03-16T08:42:29.885Z,33.67
2018-03-16T08:44:58.259Z,35.47
2018-03-16T08:47:26.777Z,64.93
2018-03-16T08:49:55.116Z,34.73
2018-03-16T08:52:23.471Z,32.80
2018-03-16T08:54:51.834Z,30.43
2018-03-16T08:57:20.166Z,35.33
2018-03-16T08:59:48.525Z,44.23
2018-03-16T09:02:16.930Z,51.73
2018-03-16T09:04:45.293Z,37.33
2018-03-16T09:07:13.645Z,37.70
2018-03-16T09:09:41.995Z,44.77
2018-03-16T09:12:10.325Z,39.60
2018-03-16T09:14:39.520Z,37.70
2018-03-16T09:17:07.878Z,45.13
2018-03-16T09:19:36.274Z,41.43
2018-03-16T09:22:04.723Z,38.63
2018-03-16T09:24:33.176Z,34.43
2018-03-16T09:27:01.540Z,40.53
2018-03-16T09:29:29.897Z,40.40
2018-03-16T09:31:58.245Z,37.03
2018-03-16T09:34:26.682Z,38.10
2018-03-16T09:36:55.031Z,35.93
2018-03-16T09:39:23.413Z,29.57
2018-03-16T09:41:51.791Z,29.40
2018-03-16T09:44:20.167Z,33.33
2018-03-16T09:46:48.546Z,33.30
2018-03-16T09:49:16.928Z,34.03
2018-03-16T09:51:45.254Z,37.27
2018-03-16T17:03:38.196Z,19.57
2018-03-16T17:09:21.213Z,25.73
2018-03-16T17:14:42.779Z,18.23
2018-03-16T17:17:11.149Z,22.17
2018-03-16T17:19:39.492Z,21.17
2018-03-16T17:22:07.922Z,19.03
2018-03-16T17:24:36.313Z,19.37
2018-03-16T17:27:04.674Z,19.20
2018-03-16T17:29:33.037Z,22.57
2018-03-16T17:32:01.375Z,14.10
2018-03-16T17:34:29.715Z,11.37
2018-03-16T17:36:57.919Z,17.67
2018-03-16T17:39:26.283Z,23.17
2018-03-16T17:41:55.085Z,14.87
2018-03-16T17:44:23.424Z,20.50
2018-03-16T17:46:51.778Z,20.50
2018-03-16T17:49:20.134Z,27.47
2018-03-16T17:51:48.501Z,20.07
2018-03-16T17:54:16.842Z,22.57
2018-03-16T17:56:45.170Z,22.57
2018-03-16T17:59:13.505Z,26.23
2018-03-16T18:01:41.863Z,28.07
2018-03-16T18:04:10.196Z,21.87
2018-03-16T18:06:38.563Z,26.63
2018-03-16T18:09:06.898Z,30.90
2018-03-16T18:11:35.252Z,16.90
2018-03-16T18:14:03.399Z,16.83
2018-03-16T18:16:31.735Z,20.70
2018-03-16T18:19:00.085Z,22.70
2018-03-16T18:21:28.457Z,21.07
2018-03-16T18:23:56.830Z,16.70
2018-03-16T18:26:25.149Z,19.23
2018-03-16T18:28:53.462Z,24.00
2018-03-16T18:31:21.792Z,26.77
2018-03-16T18:33:50.229Z,31.37
2018-03-16T18:36:18.591Z,27.37
2018-03-16T18:38:46.972Z,26.63
2018-03-16T18:41:15.347Z,29.10
2018-03-16T18:43:43.679Z,27.63
2018-03-16T18:46:12.018Z,19.00
2018-03-16T18:48:40.358Z,19.43
2018-03-16T18:51:08.767Z,25.50
2018-03-16T18:53:37.206Z,30.10
2018-03-16T18:56:05.551Z,26.07
2018-03-16T18:58:33.905Z,24.27
2018-03-16T19:01:02.241Z,27.97
2018-03-16T19:03:30.584Z,30.27
2018-03-16T19:05:58.980Z,26.27
2018-03-16T19:08:27.362Z,21.20
2018-03-16T19:10:56.643Z,20.80
2018-03-16T19:13:24.976Z,26.17
2018-03-16T19:15:53.378Z,25.17
2018-03-16T19:18:21.755Z,33.83
2018-03-16T19:20:50.109Z,20.53
2018-03-16T19:23:18.497Z,18.70
2018-03-16T19:25:46.905Z,25.80
2018-03-16T19:28:15.235Z,22.23
2018-03-16T19:30:43.612Z,17.17
2018-03-16T19:33:11.950Z,18.37
2018-03-16T19:35:40.308Z,25.87
2018-03-16T19:38:08.666Z,24.50
2018-03-16T19:40:37.058Z,25.77
2018-03-16T19:43:05.453Z,24.17
2018-03-16T19:45:33.800Z,20.50
2018-03-16T19:48:02.151Z,25.03
2018-03-16T19:50:30.586Z,24.87
2018-03-16T19:52:58.984Z,27.97
2018-03-16T19:55:27.176Z,26.57
2018-03-16T19:57:55.361Z,24.03
2018-03-16T20:00:24.090Z,21.03
2018-03-16T20:02:52.458Z,25.20
2018-03-16T20:05:20.812Z,21.97
2018-03-16T20:07:49.164Z,23.10
2018-03-16T20:10:17.501Z,25.57
2018-03-16T20:12:45.897Z,20.33
2018-03-16T20:15:14.253Z,24.33
2018-03-16T20:17:50.080Z,26.07
2018-03-16T20:20:18.968Z,22.83
2018-03-16T20:22:47.402Z,21.03
2018-03-16T20:25:15.740Z,20.90
2018-03-16T20:27:43.896Z,17.43
2018-03-16T20:30:12.239Z,27.37
2018-03-16T20:32:40.590Z,19.57
2018-03-16T20:35:08.956Z,22.23
2018-03-16T20:37:37.317Z,18.43
2018-03-16T20:40:05.701Z,25.30
2018-03-16T20:42:34.065Z,27.03
2018-03-16T20:45:04.041Z,19.57
2018-03-16T20:47:32.387Z,19.80
2018-03-16T20:50:00.729Z,18.13
2018-03-16T20:52:29.099Z,20.47
2018-03-16T20:54:57.458Z,19.53
2018-03-16T20:57:25.831Z,20.77
2018-03-16T20:59:54.180Z,19.90
2018-03-16T21:02:22.526Z,12.23
2018-03-16T21:04:50.845Z,19.73
2018-03-16T21:07:19.184Z,19.63
2018-03-16T21:09:47.531Z,18.90
2018-03-16T21:12:15.896Z,17.23
2018-03-16T21:14:44.431Z,15.67
2018-03-16T21:17:12.770Z,16.53
2018-03-16T21:19:41.105Z,14.63
2018-03-16T21:22:09.462Z,18.37
2018-03-16T21:24:37.808Z,11.10
2018-03-16T21:27:06.169Z,9.83
2018-03-16T21:29:34.536Z,17.43
2018-03-16T21:32:02.838Z,15.57
2018-03-16T21:34:31.198Z,15.20
2018-03-16T21:36:59.537Z,12.13
2018-03-16T21:39:27.873Z,15.73
2018-03-16T21:41:56.201Z,20.50
2018-03-16T21:44:24.547Z,13.40
2018-03-16T21:46:52.881Z,15.90
2018-03-16T21:49:21.202Z,14.40
2018-03-16T21:51:49.588Z,15.70
2018-03-16T21:54:17.918Z,18.33
2018-03-16T21:56:46.443Z,14.10
2018-03-16T21:59:14.829Z,15.30
2018-03-16T22:01:43.169Z,14.43
2018-03-16T22:04:11.513Z,16.00
2018-03-16T22:06:39.840Z,15.23
2018-03-16T22:09:08.183Z,17.17
2018-03-16T22:11:36.507Z,18.53
2018-03-16T22:14:04.849Z,16.20
2018-03-16T22:16:33.191Z,12.43
2018-03-16T22:19:01.529Z,12.20
2018-03-16T22:21:29.855Z,10.87
2018-03-16T22:23:58.217Z,13.83
2018-03-16T22:26:26.541Z,17.33
2018-03-16T22:28:54.875Z,12.40
2018-03-16T22:31:23.221Z,19.10
2018-03-16T22:33:51.577Z,13.33
2018-03-16T22:36:19.904Z,20.17
2018-03-16T22:38:48.236Z,12.27
2018-03-16T22:41:16.562Z,12.33
2018-03-16T22:43:44.903Z,13.23
2018-03-16T22:46:13.262Z,16.10
2018-03-16T22:48:41.609Z,16.97
2018-03-16T22:51:09.935Z,15.93
2018-03-16T22:53:38.269Z,12.97
2018-03-16T22:56:06.591Z,13.90
2018-03-16T22:58:34.932Z,17.70
2018-03-16T23:01:03.296Z,13.73
2018-03-16T23:03:31.610Z,11.37
2018-03-16T23:05:59.945Z,19.20
2018-03-16T23:08:28.255Z,15.87
2018-03-16T23:10:56.687Z,12.70
2018-03-16T23:13:25.014Z,17.77
2018-03-16T23:15:53.333Z,18.70
2018-03-16T23:18:21.670Z,14.43
2018-03-16T23:20:50.009Z,13.67
2018-03-16T23:23:18.419Z,14.27
2018-03-16T23:25:46.848Z,13.70
2018-03-16T23:28:15.185Z,17.20
2018-03-16T23:30:43.525Z,12.50
2018-03-16T23:33:11.833Z,14.97
2018-03-16T23:35:40.190Z,13.67
2018-03-16T23:38:08.507Z,15.27
2018-03-16T23:40:36.833Z,14.57
2018-03-16T23:43:05.145Z,16.80
2018-03-16T23:45:33.482Z,12.10
2018-03-16T23:48:01.840Z,13.23
2018-03-16T23:50:30.168Z,18.90
2018-03-16T23:52:58.512Z,11.00
2018-03-16T23:55:26.873Z,20.40
2018-03-16T23:57:55.194Z,19.90
